Aviation Digital Data Service (ADDS)

Output produced by METARs form (1313 UTC 26 February 2021)
found at http://www.aviationweather.gov/metar/data/
 
LOAN 261300Z 15006KT CAVOK
TAF LOAN 261125Z 2612/2621 VRB03KT CAVOK